createdAt,value
2018-12-18T04:16:17.936Z,0.80
2018-12-18T04:18:46.631Z,0.90
2018-12-18T04:21:15.178Z,0.90
2018-12-18T04:23:43.700Z,0.90
2018-12-18T04:26:12.214Z,1.00
2018-12-18T04:28:40.769Z,1.00
2018-12-18T04:31:09.075Z,1.00
2018-12-18T04:33:37.626Z,1.00
2018-12-18T04:36:05.890Z,1.00
2018-12-18T04:38:34.178Z,1.00
2018-12-18T04:41:03.159Z,1.00
2018-12-18T04:43:31.526Z,1.10
2018-12-18T04:46:00.030Z,1.00
2018-12-18T04:48:28.336Z,1.00
2018-12-18T04:50:57.129Z,1.10
2018-12-18T04:53:25.421Z,1.00
2018-12-18T04:55:53.966Z,1.00
2018-12-18T04:58:22.792Z,1.00
2018-12-18T05:00:51.078Z,0.90
2018-12-18T05:03:19.627Z,0.90
2018-12-18T05:05:48.049Z,1.00
2018-12-18T05:08:16.926Z,1.00
2018-12-18T05:10:46.307Z,1.00
2018-12-18T05:13:14.902Z,1.00
2018-12-18T05:15:43.200Z,0.90
2018-12-18T05:18:11.782Z,0.90
2018-12-18T05:20:40.032Z,0.90
2018-12-18T05:23:08.961Z,0.90
2018-12-18T05:25:37.501Z,0.90
2018-12-18T05:28:06.073Z,0.80
2018-12-18T05:30:34.394Z,0.80
2018-12-18T05:33:02.669Z,0.80
2018-12-18T05:35:31.215Z,0.80
2018-12-18T05:37:59.834Z,0.90
2018-12-18T05:40:28.871Z,1.00
2018-12-18T05:42:57.125Z,1.00
2018-12-18T05:45:25.937Z,0.90
2018-12-18T05:47:54.195Z,0.80
2018-12-18T05:50:22.470Z,0.70
2018-12-18T05:52:50.882Z,0.60
2018-12-18T05:55:19.417Z,0.60
2018-12-18T05:57:47.985Z,0.60
2018-12-18T06:00:17.535Z,0.60
2018-12-18T06:02:46.106Z,0.80
2018-12-18T06:05:14.442Z,0.80
2018-12-18T06:07:43.028Z,0.70
2018-12-18T06:10:12.151Z,0.70
2018-12-18T06:12:40.777Z,0.70
2018-12-18T06:15:09.223Z,0.60
2018-12-18T06:17:37.477Z,0.60
2018-12-18T06:20:06.398Z,0.50
2018-12-18T06:22:34.810Z,0.50
2018-12-18T06:25:03.685Z,0.60
2018-12-18T06:27:31.960Z,0.50
2018-12-18T06:30:00.279Z,0.40
2018-12-18T06:32:28.575Z,0.80
2018-12-18T06:34:56.829Z,0.80
2018-12-18T06:37:25.405Z,0.70
2018-12-18T06:39:54.042Z,0.60
2018-12-18T06:42:22.603Z,0.50
2018-12-18T06:44:51.298Z,0.50
2018-12-18T06:47:19.993Z,0.40
2018-12-18T06:49:48.861Z,0.20
2018-12-18T06:52:17.497Z,0.00
2018-12-18T06:54:45.940Z,-0.10
2018-12-18T06:57:15.134Z,-0.20
2018-12-18T06:59:43.588Z,-0.20
2018-12-18T07:02:11.848Z,-0.10
2018-12-18T07:04:40.396Z,0.00
2018-12-18T07:07:08.961Z,0.00
2018-12-18T07:09:37.562Z,0.10
2018-12-18T07:12:08.598Z,0.20
2018-12-18T07:19:40.938Z,0.20
2018-12-18T07:22:09.546Z,0.10
2018-12-18T07:24:38.183Z,0.20
2018-12-18T07:27:07.075Z,0.20
2018-12-18T07:29:35.689Z,0.20
2018-12-18T07:32:04.658Z,0.20
2018-12-18T07:34:33.454Z,0.30
2018-12-18T07:37:02.520Z,0.30
2018-12-18T07:39:30.917Z,0.20
2018-12-18T07:41:59.705Z,0.20
2018-12-18T07:44:28.465Z,0.40
2018-12-18T07:46:57.144Z,0.70
2018-12-18T07:49:27.812Z,1.10
2018-12-18T07:51:56.884Z,1.50
2018-12-18T07:54:25.729Z,1.90
2018-12-18T07:56:55.001Z,2.20
2018-12-18T07:59:23.618Z,2.50
2018-12-18T08:01:52.192Z,3.00
2018-12-18T08:04:21.315Z,3.20
2018-12-18T08:06:50.208Z,3.30
2018-12-18T08:09:18.921Z,3.30
2018-12-18T08:11:47.351Z,3.00
2018-12-18T08:14:15.909Z,3.00
2018-12-18T08:16:44.460Z,3.10
2018-12-18T08:19:12.978Z,3.00
2018-12-18T08:21:41.695Z,2.90
2018-12-18T08:24:10.312Z,3.00
2018-12-18T08:26:38.597Z,3.10
2018-12-18T08:29:07.158Z,3.00
2018-12-18T08:31:35.469Z,2.80
2018-12-18T08:34:04.851Z,2.50
2018-12-18T08:36:33.386Z,2.30
2018-12-18T08:39:02.539Z,2.10
2018-12-18T08:41:30.831Z,2.20
2018-12-18T08:43:59.462Z,2.20
2018-12-18T08:46:28.917Z,2.30
2018-12-18T08:48:57.201Z,2.50
2018-12-18T08:51:25.592Z,2.60
2018-12-18T08:53:54.200Z,2.90
2018-12-18T08:56:22.771Z,3.40
2018-12-18T08:58:51.254Z,3.70
2018-12-18T09:01:19.744Z,3.90
2018-12-18T09:03:48.011Z,4.30
2018-12-18T09:06:16.593Z,4.30
2018-12-18T09:08:44.898Z,4.50
2018-12-18T09:11:13.630Z,4.40
2018-12-18T09:13:42.566Z,4.50
2018-12-18T09:16:16.446Z,4.50
2018-12-18T09:18:44.761Z,4.60
2018-12-18T09:21:14.670Z,4.70
2018-12-18T09:23:43.022Z,5.10
2018-12-18T09:26:11.774Z,5.90
2018-12-18T09:28:40.106Z,5.80
2018-12-18T09:31:08.464Z,5.60
2018-12-18T09:33:37.707Z,5.40
2018-12-18T09:36:06.795Z,5.20
2018-12-18T09:38:40.810Z,4.80
2018-12-18T09:41:14.563Z,4.70
2018-12-18T09:43:49.092Z,4.70
2018-12-18T09:46:17.704Z,4.80
2018-12-18T09:48:46.129Z,4.90
2018-12-18T09:51:15.014Z,5.30
2018-12-18T09:53:43.730Z,5.40
2018-12-18T09:56:12.598Z,5.30
2018-12-18T09:58:41.200Z,5.20
2018-12-18T10:01:10.531Z,5.20
2018-12-18T10:03:39.172Z,5.40
2018-12-18T10:06:07.469Z,6.10
2018-12-18T10:08:35.894Z,6.40
2018-12-18T10:11:05.411Z,6.10
2018-12-18T10:13:33.908Z,6.10
2018-12-18T10:16:02.447Z,6.30
2018-12-18T10:18:30.724Z,6.60
2018-12-18T10:20:59.008Z,6.60
2018-12-18T10:23:27.531Z,6.50
2018-12-18T10:25:56.266Z,6.60
2018-12-18T10:28:24.961Z,6.30
2018-12-18T10:30:53.510Z,6.30
2018-12-18T10:33:21.986Z,7.00
2018-12-18T10:35:50.520Z,6.80
2018-12-18T10:38:19.082Z,6.30
2018-12-18T10:40:47.597Z,5.90
2018-12-18T10:43:16.397Z,5.30
2018-12-18T10:45:44.790Z,4.90
2018-12-18T10:48:14.157Z,4.60
2018-12-18T10:50:43.052Z,4.40
2018-12-18T10:53:11.491Z,4.30
2018-12-18T10:55:40.513Z,4.20
2018-12-18T10:58:09.451Z,4.20
2018-12-18T11:02:46.921Z,4.10
2018-12-18T11:05:15.893Z,4.10
2018-12-18T11:07:44.477Z,4.20
2018-12-18T11:10:13.212Z,4.20
2018-12-18T11:12:44.065Z,4.30
2018-12-18T11:15:13.051Z,4.20
2018-12-18T11:17:41.635Z,4.20
2018-12-18T11:20:10.480Z,4.20
2018-12-18T11:22:39.354Z,4.20
2018-12-18T11:25:08.086Z,4.10
2018-12-18T11:32:38.326Z,4.10
2018-12-18T11:35:07.502Z,3.90
2018-12-18T11:37:35.831Z,3.80
2018-12-18T11:40:05.648Z,3.80
2018-12-18T11:42:34.361Z,3.80
2018-12-18T11:45:03.263Z,3.80
2018-12-18T11:47:31.962Z,3.90
2018-12-18T11:50:00.702Z,3.90
2018-12-18T11:52:28.998Z,3.90
2018-12-18T11:54:57.312Z,3.90
2018-12-18T11:57:25.795Z,3.90
2018-12-18T11:59:54.103Z,3.90
2018-12-18T12:02:22.572Z,3.80
2018-12-18T12:04:51.193Z,3.80
2018-12-18T12:07:19.593Z,3.90
2018-12-18T12:09:47.894Z,3.90
2018-12-18T12:12:16.487Z,3.80
2018-12-18T12:14:45.200Z,3.90
2018-12-18T12:17:14.417Z,3.80
2018-12-18T12:19:42.983Z,3.80
2018-12-18T12:22:11.554Z,3.90
2018-12-18T12:24:39.982Z,3.90
2018-12-18T12:27:13.556Z,3.90
2018-12-18T12:29:42.102Z,3.90
2018-12-18T12:32:10.453Z,4.00
2018-12-18T12:34:38.770Z,4.00
2018-12-18T12:37:07.351Z,4.00
2018-12-18T12:39:35.986Z,4.10
2018-12-18T12:42:04.261Z,4.00
2018-12-18T12:44:32.808Z,4.00
2018-12-18T12:47:01.390Z,4.00
2018-12-18T12:49:35.797Z,3.90
2018-12-18T12:52:04.499Z,4.00
2018-12-18T12:54:33.839Z,4.10
2018-12-18T12:57:02.402Z,4.00
2018-12-18T12:59:30.894Z,4.10
2018-12-18T13:01:59.306Z,4.00
2018-12-18T13:04:27.875Z,4.00
2018-12-18T13:06:56.394Z,4.00
2018-12-18T13:09:24.753Z,4.10
2018-12-18T13:11:53.046Z,4.10
2018-12-18T13:14:21.580Z,4.10
2018-12-18T13:16:49.855Z,4.20
2018-12-18T13:19:18.546Z,4.20
2018-12-18T13:21:46.810Z,4.30
2018-12-18T13:24:15.470Z,4.30
2018-12-18T13:26:44.228Z,4.30
2018-12-18T13:29:12.669Z,4.30
2018-12-18T13:31:41.399Z,4.30
2018-12-18T13:34:09.834Z,4.30
2018-12-18T13:36:42.965Z,4.30
2018-12-18T13:39:09.077Z,4.30
2018-12-18T13:41:37.628Z,4.30
2018-12-18T13:44:06.175Z,4.20
2018-12-18T13:46:34.716Z,4.20
2018-12-18T13:49:03.000Z,4.20
2018-12-18T13:51:31.631Z,4.20
2018-12-18T13:54:00.234Z,4.20
2018-12-18T13:56:28.497Z,4.20
2018-12-18T13:58:56.754Z,4.10
2018-12-18T14:01:25.358Z,4.10
2018-12-18T14:03:54.298Z,4.10
2018-12-18T14:06:22.946Z,4.10
2018-12-18T14:08:51.500Z,4.00
2018-12-18T14:11:20.029Z,4.00
2018-12-18T14:13:48.307Z,4.00
2018-12-18T14:16:16.754Z,4.00
2018-12-18T14:18:45.999Z,3.90
2018-12-18T14:21:15.369Z,3.80
2018-12-18T14:23:43.821Z,3.70
2018-12-18T14:26:12.389Z,3.70
2018-12-18T14:28:40.686Z,3.70
2018-12-18T14:31:09.991Z,3.70
2018-12-18T14:33:38.278Z,3.70
2018-12-18T14:36:06.694Z,3.70
2018-12-18T14:38:35.261Z,3.70
2018-12-18T14:41:04.217Z,3.60
2018-12-18T14:43:32.493Z,3.60
2018-12-18T14:46:01.022Z,3.50
2018-12-18T14:48:29.406Z,3.40
2018-12-18T14:50:57.810Z,3.40
2018-12-18T14:53:26.773Z,3.40
2018-12-18T14:55:55.087Z,3.30
2018-12-18T14:58:23.661Z,3.30
2018-12-18T15:00:51.938Z,3.20
2018-12-18T15:03:20.200Z,3.00
2018-12-18T15:05:48.794Z,3.00
2018-12-18T15:08:17.045Z,2.90
2018-12-18T15:10:45.933Z,2.70
2018-12-18T15:13:14.265Z,2.70
2018-12-18T15:15:42.545Z,2.60
2018-12-18T15:18:10.922Z,2.50
2018-12-18T15:20:39.177Z,2.30
2018-12-18T15:23:07.441Z,2.30
2018-12-18T15:25:35.973Z,2.30
2018-12-18T15:28:04.225Z,2.20
2018-12-18T15:30:32.692Z,2.10
2018-12-18T15:33:01.230Z,2.10
2018-12-18T15:35:30.426Z,2.10
2018-12-18T15:37:59.142Z,2.10
2018-12-18T15:40:27.962Z,2.00
2018-12-18T15:42:56.316Z,2.10
2018-12-18T15:45:24.849Z,2.10
2018-12-18T15:47:53.133Z,2.20
2018-12-18T15:50:22.093Z,2.10
2018-12-18T15:52:50.386Z,2.00
2018-12-18T15:55:18.930Z,1.90
2018-12-18T15:57:47.210Z,1.80
2018-12-18T16:00:15.671Z,1.80
2018-12-18T16:02:44.213Z,1.70
2018-12-18T16:05:12.784Z,1.70
2018-12-18T16:07:41.326Z,1.60
2018-12-18T16:10:10.002Z,1.60
2018-12-18T16:12:38.386Z,1.60
2018-12-18T16:15:08.155Z,1.60
2018-12-18T16:17:36.497Z,1.60
2018-12-18T16:20:05.956Z,1.50
2018-12-18T16:22:34.514Z,1.40
2018-12-18T16:25:03.866Z,1.40
2018-12-18T16:27:32.458Z,1.30
2018-12-18T16:30:00.741Z,1.30
2018-12-18T16:32:29.121Z,1.30
2018-12-18T16:34:57.600Z,1.40
2018-12-18T16:37:25.854Z,1.40
2018-12-18T16:39:54.250Z,1.30
2018-12-18T16:42:22.598Z,1.30
2018-12-18T16:44:51.828Z,1.30
2018-12-18T16:47:20.410Z,1.30
2018-12-18T16:49:48.949Z,1.30
2018-12-18T16:52:17.622Z,1.20
2018-12-18T16:54:45.926Z,1.10
2018-12-18T16:57:14.311Z,1.10
2018-12-18T16:59:42.614Z,1.20
2018-12-18T17:02:10.909Z,1.10
2018-12-18T17:04:39.186Z,1.10
2018-12-18T17:07:08.381Z,1.10
2018-12-18T17:09:36.693Z,1.20
2018-12-18T17:12:05.234Z,1.30
2018-12-18T17:14:36.798Z,1.30
2018-12-18T17:17:05.705Z,1.40
2018-12-18T17:19:34.549Z,1.40
2018-12-18T17:22:02.829Z,1.50
2018-12-18T17:24:31.393Z,1.50
2018-12-18T17:26:59.774Z,1.50
2018-12-18T17:29:28.130Z,1.60
2018-12-18T17:31:56.539Z,1.60
2018-12-18T17:34:25.010Z,1.60
2018-12-18T17:36:53.707Z,1.60
2018-12-18T17:39:22.472Z,1.60
2018-12-18T17:41:50.762Z,1.60
2018-12-18T17:44:19.060Z,1.60
2018-12-18T17:46:47.333Z,1.60
2018-12-18T17:49:15.607Z,1.60
2018-12-18T17:51:44.131Z,1.60
2018-12-18T17:54:12.763Z,1.60
2018-12-18T17:56:41.609Z,1.60
2018-12-18T17:59:10.141Z,1.40
2018-12-18T18:01:38.458Z,1.50
2018-12-18T18:04:07.046Z,1.50
2018-12-18T18:06:35.658Z,1.50
2018-12-18T18:09:07.209Z,1.40
2018-12-18T18:11:35.487Z,1.50
2018-12-18T18:14:04.904Z,1.40
2018-12-18T18:16:33.213Z,1.40
2018-12-18T18:19:01.659Z,1.40
2018-12-18T18:21:29.939Z,1.40
2018-12-18T18:23:58.695Z,1.40
2018-12-18T18:26:27.245Z,1.40
2018-12-18T18:28:55.991Z,1.40
2018-12-18T18:31:24.543Z,1.40
2018-12-18T18:33:53.122Z,1.40
2018-12-18T18:36:21.666Z,1.40
2018-12-18T18:38:50.198Z,1.30
2018-12-18T18:41:18.847Z,1.30
2018-12-18T18:43:47.167Z,1.30
2018-12-18T18:46:15.501Z,1.30
2018-12-18T18:48:43.797Z,1.20
2018-12-18T18:51:12.189Z,1.20
2018-12-18T18:53:40.824Z,1.20
2018-12-18T18:56:09.689Z,1.30
2018-12-18T18:58:37.994Z,1.20
2018-12-18T19:01:06.571Z,1.20
2018-12-18T19:03:35.177Z,1.10
2018-12-18T19:06:04.197Z,1.20
2018-12-18T19:08:32.738Z,1.20
2018-12-18T19:11:01.078Z,1.10
2018-12-18T19:13:30.130Z,1.10
2018-12-18T19:15:59.043Z,1.10
2018-12-18T19:18:27.361Z,1.00
2018-12-18T19:20:55.693Z,0.90
2018-12-18T19:23:24.289Z,1.00
2018-12-18T19:25:52.589Z,0.90
2018-12-18T19:28:21.193Z,0.90
2018-12-18T19:30:49.646Z,0.90
2018-12-18T19:33:18.242Z,0.90
2018-12-18T19:35:46.526Z,0.90
2018-12-18T19:38:14.940Z,0.90
2018-12-18T19:40:43.517Z,0.90
2018-12-18T19:43:11.907Z,0.90
2018-12-18T19:45:40.345Z,0.80
2018-12-18T19:48:08.841Z,0.80
2018-12-18T19:50:37.226Z,0.80
2018-12-18T19:53:06.612Z,0.80
2018-12-18T19:55:35.326Z,0.70
2018-12-18T19:58:04.229Z,0.70
2018-12-18T20:00:32.827Z,0.60
2018-12-18T20:03:01.111Z,0.70
2018-12-18T20:05:29.677Z,0.60
2018-12-18T20:07:57.982Z,0.50
2018-12-18T20:10:26.256Z,0.50
2018-12-18T20:12:54.662Z,0.50
2018-12-18T20:15:23.346Z,0.50
2018-12-18T20:17:51.826Z,0.50
2018-12-18T20:20:20.500Z,0.50
2018-12-18T20:22:49.101Z,0.50
2018-12-18T20:25:17.671Z,0.50
2018-12-18T20:27:46.659Z,0.50
2018-12-18T20:30:15.384Z,0.40
2018-12-18T20:32:43.691Z,0.50
2018-12-18T20:35:12.162Z,0.50
2018-12-18T20:37:40.517Z,0.50
2018-12-18T20:40:10.763Z,0.40
2018-12-18T20:42:39.324Z,0.40
2018-12-18T20:45:08.552Z,0.40
2018-12-18T20:47:37.005Z,0.40
2018-12-18T20:50:06.823Z,0.30
2018-12-18T20:52:35.147Z,0.30
2018-12-18T20:55:04.461Z,0.30
2018-12-18T20:57:32.742Z,0.30
2018-12-18T21:00:01.589Z,0.30
2018-12-18T21:02:29.913Z,0.30
2018-12-18T21:04:58.567Z,0.20
2018-12-18T21:07:26.967Z,0.30
2018-12-18T21:09:55.405Z,0.30
2018-12-18T21:12:24.090Z,0.30
2018-12-18T21:14:52.457Z,0.30
2018-12-18T21:17:21.441Z,0.30
2018-12-18T21:19:49.784Z,0.30
2018-12-18T21:22:18.130Z,0.30
2018-12-18T21:24:46.458Z,0.30
2018-12-18T21:27:14.933Z,0.20
2018-12-18T21:29:43.415Z,0.20
2018-12-18T21:32:11.754Z,0.20
2018-12-18T21:34:40.158Z,0.20
2018-12-18T21:37:08.470Z,0.20
2018-12-18T21:39:36.952Z,0.20
2018-12-18T21:42:05.457Z,0.20
2018-12-18T21:44:34.155Z,0.20
2018-12-18T21:47:02.776Z,0.20
2018-12-18T21:49:31.593Z,0.20
2018-12-18T21:52:00.099Z,0.20
2018-12-18T21:54:28.422Z,0.10
2018-12-18T21:56:56.732Z,0.10
2018-12-18T21:59:25.220Z,0.00
2018-12-18T22:01:53.506Z,0.10
2018-12-18T22:04:22.223Z,0.00
2018-12-18T22:06:50.515Z,0.00
2018-12-18T22:09:19.045Z,0.00
2018-12-18T22:11:47.762Z,0.00
2018-12-18T22:14:16.066Z,0.10
2018-12-18T22:16:44.354Z,0.10
2018-12-18T22:19:12.691Z,0.10
2018-12-18T22:21:40.976Z,0.00
2018-12-18T22:24:09.273Z,0.00
2018-12-18T22:26:37.775Z,0.00
2018-12-18T22:29:06.096Z,0.00
2018-12-18T22:31:34.394Z,0.00
2018-12-18T22:34:02.693Z,0.00
2018-12-18T22:36:31.084Z,-0.10
2018-12-18T22:38:59.371Z,-0.20
2018-12-18T22:41:28.190Z,-0.20
2018-12-18T22:43:56.646Z,-0.20
2018-12-18T22:46:24.949Z,-0.20
2018-12-18T22:48:53.230Z,-0.20
2018-12-18T22:51:21.635Z,-0.20
2018-12-18T22:53:50.135Z,-0.20
2018-12-18T22:56:18.481Z,-0.20
2018-12-18T22:58:47.066Z,-0.20
